Time;durP1;ratioP1;P1;durP2;ratioP2;P2;SDS_P1;SDS_P2;PMS_P1;PMS_P2;Temp;Humidity;BMP_temperature;BMP_pressure;BME280_temperature;BME280_humidity;BME280_pressure;Samples;Min_cycle;Max_cycle;Signal;HPM_P1;HPM_P2
2022/10/02 00:02:04;;;;;;;;;5.00;3.00;;;;;18.45;59.10;101402.72;5076198;28;45355;-72
2022/10/02 00:04:37;;;;;;;;;4.67;4.00;;;;;18.43;59.36;101401.84;5070106;28;45416;-72
2022/10/02 00:07:09;;;;;;;;;4.33;3.67;;;;;18.43;60.00;101401.84;5076920;28;45946;-72
2022/10/02 00:09:42;;;;;;;;;13.00;11.33;;;;;18.43;60.30;101404.53;5084067;28;45134;-72
2022/10/02 00:12:13;;;;;;;;;4.00;4.00;;;;;18.42;60.47;101400.00;5092251;28;44993;-72
2022/10/02 00:14:41;;;;;;;;;7.67;3.67;;;;;18.27;60.80;101381.00;5089969;28;45005;-71
2022/10/02 00:17:17;;;;;;;;;7.00;3.00;;;;;18.31;60.68;101394.53;5086605;28;45426;-70
2022/10/02 00:19:42;;;;;;;;;1.67;1.67;;;;;18.39;61.21;101418.94;5090842;28;44953;-71
2022/10/02 00:22:15;;;;;;;;;6.67;3.00;;;;;18.37;61.50;101409.91;5090440;28;45047;-71
2022/10/02 00:25:27;;;;;;;;;3.33;3.33;;;;;18.34;61.96;101415.31;5071933;28;46200;-72
2022/10/02 00:28:11;;;;;;;;;4.33;2.00;;;;;18.34;62.00;101413.50;5005990;28;45367;-72
2022/10/02 00:30:50;;;;;;;;;2.33;2.33;;;;;18.16;62.10;101389.94;5006928;28;45010;-71
2022/10/02 00:33:31;;;;;;;;;3.00;3.00;;;;;18.32;62.46;101414.41;5057200;28;45169;-71
2022/10/02 00:36:13;;;;;;;;;3.67;3.67;;;;;18.07;62.84;101381.81;5090930;27;45203;-72
2022/10/02 00:39:07;;;;;;;;;7.00;4.33;;;;;18.04;62.88;101371.88;5091253;28;45016;-71
2022/10/02 00:41:43;;;;;;;;;2.67;2.67;;;;;18.32;62.63;101414.41;5091606;28;45143;-71
2022/10/02 00:44:41;;;;;;;;;2.67;2.33;;;;;18.31;63.11;101417.97;5090459;28;44898;-71
2022/10/02 00:47:45;;;;;;;;;3.00;3.00;;;;;18.31;63.29;101415.28;5072766;28;45130;-70
2022/10/02 00:50:47;;;;;;;;;5.00;5.00;;;;;18.31;63.82;101423.41;5081066;27;45141;-71
2022/10/02 00:53:46;;;;;;;;;4.00;2.67;;;;;18.29;63.76;101419.78;5113115;27;45042;-71
2022/10/02 00:56:34;;;;;;;;;2.67;2.67;;;;;18.24;64.13;101426.06;5113725;27;45243;-71
2022/10/02 00:59:28;;;;;;;;;4.00;1.67;;;;;18.25;64.42;101432.41;5111844;27;45578;-72
2022/10/02 01:02:30;;;;;;;;;3.00;2.00;;;;;18.23;64.42;101432.38;5104900;27;45074;-71
2022/10/02 01:04:57;;;;;;;;;3.00;2.00;;;;;18.21;64.65;101436.88;5092953;27;45191;-71
2022/10/02 01:07:23;;;;;;;;;5.00;4.00;;;;;18.22;64.61;101437.78;5091901;27;45226;-71
2022/10/02 01:09:48;;;;;;;;;3.33;3.33;;;;;18.16;65.06;101425.09;5105715;27;45199;-72
2022/10/02 01:12:14;;;;;;;;;2.67;2.67;;;;;18.21;65.24;101427.84;5113000;27;45206;-71
2022/10/02 01:14:40;;;;;;;;;4.33;2.00;;;;;18.07;65.32;101399.84;5113535;27;45203;-71
2022/10/02 01:17:30;;;;;;;;;6.00;3.00;;;;;17.98;66.20;101381.75;5109230;27;44929;-71
2022/10/02 01:19:57;;;;;;;;;2.00;2.00;;;;;18.22;67.53;101418.84;5110924;27;45106;-72
2022/10/02 01:22:47;;;;;;;;;5.33;4.00;;;;;18.08;67.90;101398.94;5112865;27;45216;-71
2022/10/02 01:25:13;;;;;;;;;2.00;2.00;;;;;18.08;68.76;101394.41;5109439;27;45020;-73
2022/10/02 01:27:38;;;;;;;;;5.00;4.00;;;;;18.16;68.98;101426.91;5111229;27;45023;-72
2022/10/02 01:30:15;;;;;;;;;4.33;3.00;;;;;18.03;69.18;101405.22;5111901;27;46369;-73
2022/10/02 01:32:46;;;;;;;;;4.00;3.00;;;;;18.10;69.54;101419.69;5106494;27;45087;-72
2022/10/02 01:35:12;;;;;;;;;3.33;2.67;;;;;18.07;70.38;101430.47;5109848;27;45106;-70
2022/10/02 01:37:41;;;;;;;;;3.67;3.67;;;;;18.07;71.12;101427.78;5107071;27;45271;-70
2022/10/02 01:40:21;;;;;;;;;2.67;2.67;;;;;18.05;71.44;101422.34;5112919;27;45537;-71
2022/10/02 01:42:46;;;;;;;;;2.67;2.00;;;;;17.92;71.62;101403.31;5112250;27;45349;-71
2022/10/02 01:45:12;;;;;;;;;1.00;0.33;;;;;17.91;72.48;101397.03;5112563;27;44930;-71
2022/10/02 01:47:49;;;;;;;;;5.00;3.00;;;;;18.04;72.84;101425.03;5107184;27;45082;-71
2022/10/02 01:50:26;;;;;;;;;4.67;3.00;;;;;18.03;73.01;101418.75;5084494;28;45346;-71
2022/10/02 01:52:57;;;;;;;;;4.33;3.00;;;;;18.03;72.51;101416.03;5090939;28;45331;-71
2022/10/02 01:56:02;;;;;;;;;2.67;2.67;;;;;17.96;72.59;101400.66;5093288;27;45386;-71
2022/10/02 01:58:58;;;;;;;;;4.33;3.00;;;;;17.99;72.75;101408.78;5087717;28;45194;-71
2022/10/02 02:01:24;;;;;;;;;3.33;3.33;;;;;18.01;73.21;101400.69;5095214;28;45800;-70
2022/10/02 02:03:58;;;;;;;;;3.67;3.00;;;;;17.99;73.16;101406.09;5095218;28;45116;-70
2022/10/02 02:06:30;;;;;;;;;4.33;4.00;;;;;17.99;72.88;101411.50;5096097;28;45113;-70
2022/10/02 02:09:02;;;;;;;;;2.33;2.33;;;;;17.99;73.22;101399.78;5095211;28;44923;-71
2022/10/02 02:11:29;;;;;;;;;5.33;2.00;;;;;17.99;73.38;101408.78;5084985;28;46079;-71
2022/10/02 02:14:00;;;;;;;;;3.00;3.00;;;;;17.57;73.52;101331.00;5081270;28;45443;-71
2022/10/02 02:16:32;;;;;;;;;5.33;2.00;;;;;18.02;73.45;101402.50;5081585;28;45428;-71
2022/10/02 02:19:20;;;;;;;;;4.00;4.00;;;;;17.99;73.32;101397.97;5074988;28;45288;-70
2022/10/02 02:21:59;;;;;;;;;3.67;2.00;;;;;17.97;73.49;101388.97;5079526;28;46368;-71
2022/10/02 02:24:31;;;;;;;;;4.00;3.33;;;;;17.96;73.72;101392.53;5079579;28;45757;-70
2022/10/02 02:27:00;;;;;;;;;4.67;4.00;;;;;17.91;74.39;101390.72;5079388;28;45485;-70
2022/10/02 02:29:29;;;;;;;;;7.00;3.33;;;;;17.95;74.69;101387.13;5091523;27;45314;-71
2022/10/02 02:31:57;;;;;;;;;3.67;2.00;;;;;17.93;74.87;101391.63;5084394;28;45464;-71
2022/10/02 02:34:31;;;;;;;;;2.67;2.67;;;;;17.93;74.98;101392.53;5080098;28;45288;-70
2022/10/02 02:37:03;;;;;;;;;5.00;4.00;;;;;17.95;75.55;101389.81;5076738;28;46783;-70
2022/10/02 02:39:41;;;;;;;;;3.33;3.00;;;;;17.96;75.45;101380.84;5080669;28;45347;-71
2022/10/02 02:42:09;;;;;;;;;1.67;1.00;;;;;17.89;75.79;101368.19;5079541;28;45511;-71
2022/10/02 02:45:15;;;;;;;;;4.67;4.67;;;;;17.83;76.00;101350.97;5075353;28;45515;-71
2022/10/02 02:47:45;;;;;;;;;4.33;3.33;;;;;17.91;75.79;101364.59;5060195;27;45510;-71
2022/10/02 02:50:20;;;;;;;;;2.33;2.33;;;;;17.97;76.07;101369.13;5100155;27;45527;-70
2022/10/02 02:53:01;;;;;;;;;4.67;3.00;;;;;17.99;75.90;101372.75;5101453;27;46055;-70
2022/10/02 02:55:56;;;;;;;;;2.67;2.33;;;;;17.99;76.17;101367.34;5099965;27;45393;-70
2022/10/02 02:58:30;;;;;;;;;2.00;2.00;;;;;17.84;76.42;101336.56;5093548;27;45622;-71
2022/10/02 03:00:56;;;;;;;;;4.00;1.33;;;;;17.89;76.09;101338.44;5100362;27;45402;-70
2022/10/02 03:03:22;;;;;;;;;5.00;3.00;;;;;17.97;76.51;101345.69;5098898;27;45467;-71
2022/10/02 03:05:52;;;;;;;;;3.00;2.33;;;;;18.00;76.67;101359.25;5099173;27;45415;-72
2022/10/02 03:08:27;;;;;;;;;2.00;1.67;;;;;17.94;76.38;101345.69;5096897;27;45473;-71
2022/10/02 03:11:08;;;;;;;;;2.67;2.67;;;;;17.99;76.85;101351.13;5108893;27;45363;-71
2022/10/02 03:13:39;;;;;;;;;2.33;2.33;;;;;18.00;76.59;101355.59;5115188;27;45309;-71
2022/10/02 03:16:08;;;;;;;;;3.00;2.00;;;;;17.55;76.70;101279.63;5097665;27;45333;-71
2022/10/02 03:18:53;;;;;;;;;1.00;1.00;;;;;17.98;76.89;101352.00;5096717;27;45366;-70
2022/10/02 03:21:38;;;;;;;;;3.00;2.00;;;;;17.98;76.89;101346.59;5110776;27;45433;-71
2022/10/02 03:24:31;;;;;;;;;5.67;5.67;;;;;17.98;76.98;101347.53;5097311;27;45272;-71
2022/10/02 03:26:56;;;;;;;;;7.33;7.33;;;;;18.02;77.08;101351.13;5096244;27;45484;-71
2022/10/02 03:29:29;;;;;;;;;4.00;2.00;;;;;17.92;76.93;101330.31;5095520;27;45529;-71
2022/10/02 03:31:55;;;;;;;;;3.00;3.00;;;;;17.98;76.77;101342.13;5096745;27;45530;-72
2022/10/02 03:34:22;;;;;;;;;2.00;2.00;;;;;18.00;77.21;101343.03;5102598;27;45499;-72
2022/10/02 03:36:48;;;;;;;;;1.00;1.00;;;;;17.98;76.88;101324.97;5096202;27;45435;-72
2022/10/02 03:39:13;;;;;;;;;2.00;2.00;;;;;18.05;76.86;101329.53;5088134;27;45552;-71
2022/10/02 03:41:39;;;;;;;;;1.00;1.00;;;;;18.06;77.09;101334.00;5105552;27;45317;-72
2022/10/02 03:44:04;;;;;;;;;1.67;1.67;;;;;18.01;76.79;101331.28;5093843;27;45523;-71
2022/10/02 03:46:29;;;;;;;;;1.67;1.00;;;;;17.90;76.73;101305.09;5094860;27;45327;-71
2022/10/02 03:48:55;;;;;;;;;1.00;1.00;;;;;18.09;76.87;101335.84;5083514;27;45558;-71
2022/10/02 03:51:21;;;;;;;;;1.00;1.00;;;;;18.09;76.88;101339.44;5057788;28;45537;-70
2022/10/02 03:53:46;;;;;;;;;0.67;0.67;;;;;17.84;76.86;101297.84;5074089;28;45561;-71
2022/10/02 03:56:15;;;;;;;;;4.00;1.33;;;;;18.07;76.94;101330.44;5078091;28;45315;-70
2022/10/02 03:58:45;;;;;;;;;0.00;0.00;;;;;18.00;76.95;101317.75;5085884;28;45426;-72
2022/10/02 04:01:18;;;;;;;;;4.33;2.00;;;;;17.93;77.16;101302.41;5080847;28;45311;-71
2022/10/02 04:03:52;;;;;;;;;0.33;0.33;;;;;18.08;76.81;101340.34;5078444;28;45723;-70
2022/10/02 04:06:36;;;;;;;;;1.33;1.33;;;;;18.02;76.98;101326.81;5064550;28;45455;-72
2022/10/02 04:09:16;;;;;;;;;1.00;1.00;;;;;18.09;77.23;101335.84;5069964;28;45488;-70
2022/10/02 04:11:47;;;;;;;;;2.00;1.00;;;;;17.99;76.95;101318.66;5075589;28;45451;-71
2022/10/02 04:14:20;;;;;;;;;3.00;1.33;;;;;18.04;77.39;101325.00;5075121;28;45454;-71
2022/10/02 04:16:56;;;;;;;;;2.67;1.00;;;;;18.05;77.03;101333.13;5075344;28;45359;-71
2022/10/02 04:19:28;;;;;;;;;0.67;0.67;;;;;18.10;76.93;101333.16;5071066;28;45571;-70
2022/10/02 04:21:57;;;;;;;;;0.00;0.00;;;;;18.09;77.03;101331.34;5078816;28;45295;-70
2022/10/02 04:24:41;;;;;;;;;1.00;1.00;;;;;18.11;77.12;101342.16;5077692;28;46706;-70
2022/10/02 04:27:16;;;;;;;;;1.33;1.33;;;;;17.97;77.48;101309.66;5069633;28;45279;-71
2022/10/02 04:29:56;;;;;;;;;0.67;0.67;;;;;18.01;77.32;101316.88;5074985;28;45351;-70
2022/10/02 04:32:29;;;;;;;;;1.00;1.00;;;;;17.90;77.43;101299.69;5084040;28;45555;-70
2022/10/02 04:34:55;;;;;;;;;0.00;0.00;;;;;17.88;77.28;101299.69;5084847;28;45389;-70
2022/10/02 04:37:26;;;;;;;;;0.67;0.67;;;;;18.04;77.58;101333.13;5085970;28;45329;-69
2022/10/02 04:40:20;;;;;;;;;0.00;0.00;;;;;17.92;77.45;101315.03;5075956;28;45310;-70
2022/10/02 04:42:51;;;;;;;;;1.00;1.00;;;;;18.04;78.03;101347.53;5069109;28;45524;-71
2022/10/02 04:46:00;;;;;;;;;0.00;0.00;;;;;18.03;77.87;101344.81;5076404;28;45383;-71
2022/10/02 04:48:34;;;;;;;;;0.00;0.00;;;;;18.03;77.44;101345.75;5070210;27;45457;-69
2022/10/02 04:51:08;;;;;;;;;0.33;0.33;;;;;18.02;77.44;101349.31;5072600;28;45412;-71
2022/10/02 04:53:40;;;;;;;;;1.00;1.00;;;;;18.02;77.54;101340.31;5064233;28;45047;-70
2022/10/02 04:56:14;;;;;;;;;0.00;0.00;;;;;18.04;77.64;101347.53;5091455;28;45757;-71
2022/10/02 04:59:07;;;;;;;;;1.00;0.00;;;;;18.02;77.64;101343.03;5062944;28;45310;-70
2022/10/02 05:01:51;;;;;;;;;1.00;0.00;;;;;18.02;77.57;101345.72;5071262;28;45556;-71
2022/10/02 05:04:42;;;;;;;;;0.33;0.33;;;;;18.01;77.60;101347.50;5077515;28;45343;-69
2022/10/02 05:07:40;;;;;;;;;0.00;0.00;;;;;17.69;77.71;101290.56;5077129;28;46276;-70
2022/10/02 05:10:14;;;;;;;;;0.00;0.00;;;;;18.02;77.56;101343.03;5090362;28;45727;-70
2022/10/02 05:12:48;;;;;;;;;0.00;0.00;;;;;18.04;77.47;101349.34;5089862;28;45036;-70
2022/10/02 05:15:39;;;;;;;;;0.00;0.00;;;;;18.05;77.03;101353.88;5083685;28;45452;-69
2022/10/02 05:18:20;;;;;;;;;0.67;0.00;;;;;18.06;77.44;101350.25;5088932;28;45819;-71
2022/10/02 05:21:14;;;;;;;;;0.00;0.00;;;;;18.07;77.50;101353.88;5089248;28;45252;-71
2022/10/02 05:24:03;;;;;;;;;0.00;0.00;;;;;18.06;77.32;101352.94;5085835;28;45031;-70
2022/10/02 05:26:51;;;;;;;;;0.00;0.00;;;;;18.05;76.99;101349.34;5074387;28;45438;-72
2022/10/02 05:29:33;;;;;;;;;0.00;0.00;;;;;18.00;76.80;101343.03;5079815;27;45395;-70
2022/10/02 05:32:27;;;;;;;;;2.00;0.67;;;;;17.91;76.92;101325.84;5088610;28;44977;-70
2022/10/02 05:35:01;;;;;;;;;1.00;0.00;;;;;18.04;76.69;101355.63;5087886;28;45170;-71
2022/10/02 05:38:15;;;;;;;;;0.00;0.00;;;;;18.02;76.43;101354.72;5082342;28;45564;-70
2022/10/02 05:40:50;;;;;;;;;0.00;0.00;;;;;17.89;76.26;101330.34;5067384;28;46203;-70
2022/10/02 05:43:41;;;;;;;;;0.00;0.00;;;;;17.96;76.32;101353.81;5073441;28;45393;-71
2022/10/02 05:46:15;;;;;;;;;0.33;0.00;;;;;17.84;76.16;101341.97;5073847;28;45402;-72
2022/10/02 05:48:45;;;;;;;;;0.00;0.00;;;;;17.92;76.48;101360.06;5070583;27;45566;-71
2022/10/02 05:51:22;;;;;;;;;1.00;0.00;;;;;17.92;76.31;101371.81;5086285;28;45434;-71
2022/10/02 05:53:56;;;;;;;;;0.00;0.00;;;;;17.90;76.31;101370.91;5090272;28;45092;-70
2022/10/02 05:56:31;;;;;;;;;0.00;0.00;;;;;17.89;75.95;101377.19;5076296;28;45653;-70
2022/10/02 05:59:23;;;;;;;;;1.00;1.00;;;;;17.74;76.11;101361.75;5073552;28;45682;-71
2022/10/02 06:01:51;;;;;;;;;0.00;0.00;;;;;17.74;76.43;101364.44;5073801;28;45498;-72
2022/10/02 06:04:19;;;;;;;;;0.33;0.33;;;;;17.89;76.16;101395.22;5079935;28;45263;-71
2022/10/02 06:06:50;;;;;;;;;0.00;0.00;;;;;17.90;76.22;101389.81;5080417;28;45477;-71
2022/10/02 06:09:23;;;;;;;;;1.00;1.00;;;;;17.79;76.35;101375.28;5089194;28;45074;-72
2022/10/02 06:11:54;;;;;;;;;0.00;0.00;;;;;17.91;76.23;101396.13;5081475;28;45561;-72
2022/10/02 06:14:42;;;;;;;;;0.00;0.00;;;;;17.90;75.96;101389.81;5073564;28;45626;-71
2022/10/02 06:17:13;;;;;;;;;0.00;0.00;;;;;17.90;76.02;101380.78;5069099;28;45566;-71
2022/10/02 06:20:07;;;;;;;;;1.00;0.00;;;;;17.83;76.15;101379.81;5071912;28;45474;-73
2022/10/02 06:23:00;;;;;;;;;0.00;0.00;;;;;17.85;75.86;101388.81;5072091;28;46063;-72
2022/10/02 06:25:39;;;;;;;;;1.00;0.00;;;;;17.84;76.55;101390.63;5075534;28;45489;-71
2022/10/02 06:28:29;;;;;;;;;4.00;1.00;;;;;17.87;76.06;101389.81;5076953;28;45385;-71
2022/10/02 06:31:01;;;;;;;;;0.00;0.00;;;;;17.85;75.64;101373.53;5081921;28;45182;-70
2022/10/02 06:33:31;;;;;;;;;1.67;0.00;;;;;17.89;75.95;101384.41;5079034;28;45834;-69
2022/10/02 06:36:16;;;;;;;;;0.00;0.00;;;;;17.82;75.93;101364.50;5070972;28;46869;-72
2022/10/02 06:39:15;;;;;;;;;1.33;0.00;;;;;17.98;76.34;101392.56;5054140;28;45609;-70
2022/10/02 06:41:58;;;;;;;;;0.00;0.00;;;;;17.98;75.66;101370.94;5068880;28;45409;-72
2022/10/02 06:45:05;;;;;;;;;0.00;0.00;;;;;18.06;75.72;101382.69;5057892;28;46009;-70
2022/10/02 06:47:42;;;;;;;;;1.00;1.00;;;;;18.09;75.58;101385.41;5076242;27;45552;-71
2022/10/02 06:50:36;;;;;;;;;0.00;0.00;;;;;18.06;75.66;101382.69;5083937;28;45310;-70
2022/10/02 06:53:17;;;;;;;;;0.00;0.00;;;;;18.03;75.03;101375.47;5070046;28;45426;-69
2022/10/02 06:55:59;;;;;;;;;0.00;0.00;;;;;18.11;75.54;101388.13;5088022;28;45128;-71
2022/10/02 06:58:41;;;;;;;;;0.67;0.33;;;;;17.92;75.22;101352.88;5083535;28;45405;-71
2022/10/02 07:01:25;;;;;;;;;0.00;0.00;;;;;18.08;75.37;101380.88;5084122;28;45379;-70
2022/10/02 07:04:10;;;;;;;;;0.00;0.00;;;;;18.16;75.08;101395.34;5073136;28;45790;-70
2022/10/02 07:06:55;;;;;;;;;1.00;1.00;;;;;17.89;75.31;101338.44;5081300;28;45666;-78
2022/10/02 07:09:53;;;;;;;;;0.00;0.00;;;;;18.05;75.34;101354.75;5064416;28;45699;-77
2022/10/02 07:12:42;;;;;;;;;0.00;0.00;;;;;18.19;75.33;101381.84;5082698;28;45608;-76
2022/10/02 07:15:17;;;;;;;;;0.00;0.00;;;;;18.23;75.00;101386.41;5085139;28;45366;-77
2022/10/02 07:18:10;;;;;;;;;2.67;2.33;;;;;18.24;75.29;101382.78;5090954;28;45529;-74
2022/10/02 07:21:19;;;;;;;;;0.00;0.00;;;;;18.28;74.99;101385.50;5088095;28;45127;-75
2022/10/02 07:23:59;;;;;;;;;1.33;1.00;;;;;18.31;74.76;101383.72;4988130;28;45229;-74
2022/10/02 07:26:46;;;;;;;;;1.00;1.00;;;;;18.36;74.78;101381.03;4981963;28;45212;-75
2022/10/02 07:30:07;;;;;;;;;0.00;0.00;;;;;18.39;74.07;101375.63;5053507;28;45955;-75
2022/10/02 07:32:46;;;;;;;;;1.00;0.00;;;;;18.29;74.28;101362.97;5015436;28;45649;-74
2022/10/02 07:35:32;;;;;;;;;1.00;0.00;;;;;18.30;73.87;101368.41;5091319;28;44886;-74
2022/10/02 07:38:21;;;;;;;;;0.00;0.00;;;;;18.46;74.02;101395.50;5086430;28;45391;-74
2022/10/02 07:41:04;;;;;;;;;0.00;0.00;;;;;18.48;73.74;101393.72;5069997;28;45602;-75
2022/10/02 07:43:35;;;;;;;;;0.00;0.00;;;;;18.49;73.32;101392.81;5084817;28;45286;-72
2022/10/02 07:46:32;;;;;;;;;0.00;0.00;;;;;18.49;73.16;101406.34;5086721;28;45164;-74
2022/10/02 07:49:14;;;;;;;;;0.00;0.00;;;;;18.24;72.73;101358.44;5095366;27;45590;-74
2022/10/02 07:52:17;;;;;;;;;2.00;0.67;;;;;18.50;72.26;101400.06;5093561;28;45252;-72
2022/10/02 07:55:07;;;;;;;;;1.00;1.00;;;;;18.52;72.41;101390.13;5090476;28;45389;-74
2022/10/02 07:57:57;;;;;;;;;0.00;0.00;;;;;18.55;72.00;101404.56;5092828;28;44974;-74
2022/10/02 08:00:24;;;;;;;;;3.00;0.00;;;;;18.58;71.78;101410.00;5086098;28;45419;-75
2022/10/02 08:03:00;;;;;;;;;0.00;0.00;;;;;18.55;71.75;101403.69;5092235;28;45543;-72
2022/10/02 08:05:43;;;;;;;;;0.00;0.00;;;;;18.48;71.16;101388.28;5091530;28;45127;-73
2022/10/02 08:08:30;;;;;;;;;0.00;0.00;;;;;18.72;71.08;101417.25;5090437;28;45299;-73
2022/10/02 08:11:27;;;;;;;;;0.00;0.00;;;;;18.78;70.87;101426.31;5054201;28;45689;-73
2022/10/02 08:14:02;;;;;;;;;2.33;1.33;;;;;18.83;70.69;101410.13;5087469;28;46167;-71
2022/10/02 08:16:35;;;;;;;;;0.33;0.33;;;;;18.88;70.52;101420.97;5086168;28;44749;-72
2022/10/02 08:19:06;;;;;;;;;4.00;2.00;;;;;18.94;70.38;101418.25;5073073;28;45432;-71
2022/10/02 08:21:38;;;;;;;;;2.00;0.00;;;;;19.00;69.72;101417.38;5082867;28;45399;-74
2022/10/02 08:24:12;;;;;;;;;2.33;2.00;;;;;19.04;69.59;101430.00;5075520;28;46845;-73
2022/10/02 08:26:42;;;;;;;;;0.00;0.00;;;;;19.01;69.39;101422.81;5083922;28;45140;-70
2022/10/02 08:29:21;;;;;;;;;1.00;1.00;;;;;19.04;69.10;101435.44;5079471;28;45408;-73
2022/10/02 08:31:50;;;;;;;;;2.00;0.33;;;;;19.14;68.80;101440.00;5078098;28;45589;-73
2022/10/02 08:34:18;;;;;;;;;1.00;0.00;;;;;19.14;68.66;101429.16;5077073;28;45718;-72
2022/10/02 08:36:58;;;;;;;;;2.00;2.00;;;;;19.16;68.51;101421.94;5072798;28;45643;-75
2022/10/02 08:40:00;;;;;;;;;0.33;0.33;;;;;19.13;68.39;101428.22;5085521;28;45239;-70
2022/10/02 08:42:44;;;;;;;;;3.00;1.00;;;;;19.16;68.41;101421.94;5074952;28;45701;-71
2022/10/02 08:45:24;;;;;;;;;2.33;0.33;;;;;19.21;67.95;101432.78;5083041;28;45387;-71
2022/10/02 08:48:38;;;;;;;;;2.00;0.00;;;;;19.23;68.20;101422.84;5084083;27;45179;-71
2022/10/02 08:51:21;;;;;;;;;1.00;1.00;;;;;19.36;68.02;101434.59;5094557;27;45431;-72
2022/10/02 08:54:14;;;;;;;;;1.67;1.00;;;;;19.45;67.34;101435.53;5084742;27;46135;-71
2022/10/02 08:57:17;;;;;;;;;1.00;1.00;;;;;19.52;67.36;101431.91;5090709;27;45666;-74
2022/10/02 08:59:53;;;;;;;;;5.67;3.33;;;;;19.55;66.93;101435.50;5093430;27;45481;-69
2022/10/02 09:02:46;;;;;;;;;1.00;1.00;;;;;19.55;67.05;101441.84;5093536;27;45517;-71
2022/10/02 09:05:27;;;;;;;;;3.00;3.00;;;;;19.57;67.32;101434.63;5089886;27;45497;-73
2022/10/02 09:08:21;;;;;;;;;3.67;2.00;;;;;19.58;66.98;101438.22;5091441;27;45666;-69
2022/10/02 09:11:11;;;;;;;;;1.00;1.00;;;;;19.63;66.85;101442.75;5091579;27;45586;-68
2022/10/02 09:13:53;;;;;;;;;4.00;2.67;;;;;19.68;67.03;101438.25;5092650;27;45348;-72
2022/10/02 09:16:52;;;;;;;;;2.00;2.00;;;;;19.77;66.83;101428.34;5101094;27;45040;-73
2022/10/02 09:19:30;;;;;;;;;7.33;4.33;;;;;19.81;66.61;101428.28;5078374;27;46334;-71
2022/10/02 09:22:21;;;;;;;;;4.33;2.67;;;;;19.83;66.54;101428.28;5094358;27;45376;-71
2022/10/02 09:25:12;;;;;;;;;3.00;1.00;;;;;19.85;66.47;101418.38;5101902;27;46229;-72
2022/10/02 09:27:53;;;;;;;;;4.00;2.67;;;;;19.89;66.55;101418.34;5072242;27;45588;-70
2022/10/02 09:31:06;;;;;;;;;3.67;2.00;;;;;19.95;66.40;101413.84;5094543;27;46475;-69
2022/10/02 09:33:46;;;;;;;;;3.33;2.67;;;;;20.06;66.00;101403.84;5015630;28;45875;-72
2022/10/02 09:36:32;;;;;;;;;3.67;3.67;;;;;20.17;65.81;101406.56;5081018;27;45391;-72
2022/10/02 09:39:16;;;;;;;;;5.00;4.00;;;;;20.27;65.11;101407.44;5088740;27;45441;-73
2022/10/02 09:41:53;;;;;;;;;1.33;1.33;;;;;20.31;64.95;101415.56;5099740;27;45592;-70
2022/10/02 09:44:30;;;;;;;;;3.67;2.67;;;;;20.34;64.84;101415.56;5103486;27;45239;-72
2022/10/02 09:47:20;;;;;;;;;2.00;1.00;;;;;20.36;64.63;101412.81;5095402;27;45420;-72
2022/10/02 09:50:11;;;;;;;;;0.67;0.67;;;;;20.39;65.00;101412.81;5090088;27;45395;-73
2022/10/02 09:53:02;;;;;;;;;0.67;0.67;;;;;20.41;64.77;101408.28;5087601;27;46654;-70
2022/10/02 09:55:48;;;;;;;;;2.00;0.67;;;;;20.43;64.91;101420.94;5089041;27;45409;-71
2022/10/02 09:58:35;;;;;;;;;2.00;2.00;;;;;20.43;64.59;101420.94;5095588;27;45391;-75
2022/10/02 10:01:06;;;;;;;;;4.67;2.00;;;;;20.48;64.38;101426.34;5097612;27;45682;-70
2022/10/02 10:03:53;;;;;;;;;1.00;0.00;;;;;20.53;64.58;101431.78;5103471;27;45433;-73
2022/10/02 10:06:40;;;;;;;;;3.33;2.33;;;;;20.59;64.29;101423.56;5092673;27;45604;-70
2022/10/02 10:09:12;;;;;;;;;1.00;1.00;;;;;20.61;64.11;101421.78;5104890;27;45495;-72
2022/10/02 10:11:46;;;;;;;;;3.67;1.00;;;;;20.64;64.19;101419.09;5111498;27;45718;-69
2022/10/02 10:14:36;;;;;;;;;1.00;1.00;;;;;20.71;63.86;101417.25;5105138;27;45861;-77
2022/10/02 10:17:29;;;;;;;;;1.33;0.33;;;;;20.76;63.45;101424.44;5100776;27;45543;-72
2022/10/02 10:20:29;;;;;;;;;2.00;1.00;;;;;20.78;63.03;101421.72;5095149;27;45451;-71
2022/10/02 10:23:35;;;;;;;;;1.00;1.00;;;;;20.79;62.97;101427.16;5097355;27;45544;-71
2022/10/02 10:26:33;;;;;;;;;1.00;1.00;;;;;20.74;63.19;101407.28;5093995;27;46148;-72
2022/10/02 10:29:03;;;;;;;;;2.00;2.00;;;;;20.88;63.25;101425.31;5101614;27;45781;-73
2022/10/02 10:31:59;;;;;;;;;3.00;3.00;;;;;20.85;63.05;101422.59;5106597;27;45543;-72
2022/10/02 10:34:46;;;;;;;;;5.00;3.67;;;;;20.93;62.84;101416.19;5109262;27;45730;-73
2022/10/02 10:40:37;;;;;;;;;3.00;1.00;;;;;20.92;62.08;101384.53;5113639;27;45100;-73
2022/10/02 10:43:27;;;;;;;;;0.00;0.00;;;;;21.28;61.78;101422.31;5106005;27;45137;-73
2022/10/02 10:46:10;;;;;;;;;1.00;1.00;;;;;21.34;60.94;101414.13;5101589;27;45548;-72
2022/10/02 10:49:12;;;;;;;;;1.67;1.00;;;;;21.08;60.79;101352.72;5098881;27;45412;-72
2022/10/02 10:51:53;;;;;;;;;2.00;2.00;;;;;21.48;60.73;101408.59;5082447;28;45431;-70
2022/10/02 10:54:51;;;;;;;;;2.00;2.00;;;;;21.52;60.54;101416.72;5080349;28;45677;-71
2022/10/02 10:57:24;;;;;;;;;1.67;1.00;;;;;21.51;59.71;101424.91;5084660;28;45205;-72
2022/10/02 11:00:22;;;;;;;;;0.67;0.67;;;;;21.48;59.97;101422.19;5081133;28;45790;-73
2022/10/02 11:02:53;;;;;;;;;1.00;1.00;;;;;21.40;60.34;101426.75;5076346;28;45391;-75
2022/10/02 11:05:50;;;;;;;;;0.67;0.33;;;;;21.35;60.55;101415.94;5076939;28;45533;-72
2022/10/02 11:08:37;;;;;;;;;1.00;1.00;;;;;21.28;60.35;101422.31;5076038;28;45462;-71
2022/10/02 11:11:25;;;;;;;;;3.00;2.33;;;;;21.24;60.45;101420.56;5075133;28;45653;-75
2022/10/02 11:14:15;;;;;;;;;2.00;2.00;;;;;21.20;60.33;101427.84;5076015;28;45455;-74
2022/10/02 11:17:36;;;;;;;;;1.33;1.33;;;;;21.19;60.29;101423.31;5074328;28;45488;-72
2022/10/02 11:20:19;;;;;;;;;1.00;1.00;;;;;21.19;59.93;101417.88;5016202;28;45324;-71
2022/10/02 11:22:47;;;;;;;;;4.00;4.00;;;;;21.19;59.84;101419.69;5076528;28;46159;-72
2022/10/02 11:25:13;;;;;;;;;1.00;1.00;;;;;21.17;59.82;101425.13;5082199;28;45502;-72
2022/10/02 11:27:47;;;;;;;;;2.33;1.00;;;;;21.16;59.84;101417.88;5081255;28;46150;-74
2022/10/02 11:30:22;;;;;;;;;1.67;1.67;;;;;21.13;59.94;101418.78;5063286;28;45578;-70
2022/10/02 11:33:18;;;;;;;;;1.00;1.00;;;;;21.07;60.07;101416.13;5077159;28;46368;-75
2022/10/02 11:36:41;;;;;;;;;1.00;1.00;;;;;20.95;60.32;101411.69;5083984;28;45307;-74
2022/10/02 11:39:13;;;;;;;;;1.33;1.00;;;;;20.99;60.28;101420.72;5078937;28;45543;-74
2022/10/02 11:41:43;;;;;;;;;1.00;1.00;;;;;20.95;60.47;101429.78;5077439;28;45384;-72
2022/10/02 11:44:21;;;;;;;;;3.00;1.67;;;;;20.92;60.88;101429.78;5073071;28;46408;-74
2022/10/02 11:47:35;;;;;;;;;1.00;1.00;;;;;20.88;61.15;101430.72;5075603;28;45670;-75
2022/10/02 11:50:36;;;;;;;;;0.00;0.00;;;;;20.62;61.94;101400.06;5060044;28;45582;-71
2022/10/02 11:53:21;;;;;;;;;1.67;1.67;;;;;20.78;62.90;101447.06;5084938;28;45224;-75
2022/10/02 11:56:03;;;;;;;;;1.00;1.00;;;;;20.62;64.67;101457.06;5083261;27;46437;-72
2022/10/02 11:58:50;;;;;;;;;1.00;1.00;;;;;20.49;66.81;101457.09;5069350;28;45522;-72
2022/10/02 12:01:40;;;;;;;;;1.00;1.00;;;;;20.37;68.56;101458.06;5076789;27;45631;-72
2022/10/02 12:04:17;;;;;;;;;2.67;2.00;;;;;20.37;70.05;101466.19;5076469;28;45769;-72
2022/10/02 12:07:16;;;;;;;;;2.00;1.00;;;;;20.31;69.82;101463.47;5071779;28;45678;-73
2022/10/02 12:10:15;;;;;;;;;0.67;0.67;;;;;20.26;70.37;101460.81;5069677;27;45516;-71
2022/10/02 12:13:14;;;;;;;;;1.00;1.00;;;;;20.32;70.58;101452.63;5070113;28;45686;-71
2022/10/02 12:16:09;;;;;;;;;2.67;1.00;;;;;20.34;70.90;101464.41;5074161;28;45659;-70
2022/10/02 12:19:03;;;;;;;;;7.33;5.33;;;;;20.40;70.72;101456.22;5052478;28;47711;-72
2022/10/02 12:27:59;;;;;;;;;2.33;2.33;;;;;20.64;69.75;101442.59;5068784;28;45525;-70
2022/10/02 12:30:38;;;;;;;;;2.00;2.00;;;;;20.65;69.35;101448.03;5068738;28;46181;-71
2022/10/02 12:33:13;;;;;;;;;1.00;1.00;;;;;20.66;69.18;101443.53;5069099;28;45637;-70
2022/10/02 12:36:06;;;;;;;;;1.00;1.00;;;;;20.62;69.75;101458.88;5072608;28;45584;-72
2022/10/02 12:39:02;;;;;;;;;4.00;0.33;;;;;20.60;70.87;101455.25;5072719;28;45670;-75
2022/10/02 12:41:45;;;;;;;;;1.33;1.33;;;;;20.56;70.82;101445.34;5073946;28;46121;-71